createdAt,value
2017-04-17T00:00:58.933Z,18.78
2017-04-17T00:02:08.602Z,18.78
2017-04-17T00:03:19.137Z,18.74
2017-04-17T00:04:29.438Z,18.73
2017-04-17T00:05:39.731Z,18.7
2017-04-17T00:06:49.398Z,18.78
2017-04-17T00:07:59.699Z,18.83
2017-04-17T00:09:10.240Z,18.73
2017-04-17T00:10:20.516Z,18.74
2017-04-17T00:11:30.525Z,18.73
2017-04-17T00:12:40.808Z,18.76
2017-04-17T00:13:51.101Z,18.76
2017-04-17T00:15:01.326Z,18.73
2017-04-17T00:16:11.298Z,18.78
2017-04-17T00:17:21.272Z,18.71
2017-04-17T00:18:31.567Z,18.73
2017-04-17T00:19:41.230Z,18.76
2017-04-17T00:20:51.763Z,18.79
2017-04-17T00:22:02.072Z,18.78
2017-04-17T00:23:12.347Z,18.76
2017-04-17T00:24:22.004Z,18.74
2017-04-17T00:25:31.976Z,18.76
2017-04-17T00:26:42.694Z,18.71
2017-04-17T00:27:53.354Z,18.76
2017-04-17T00:29:03.648Z,18.7
2017-04-17T00:30:13.623Z,18.78
2017-04-17T00:31:23.598Z,18.74
2017-04-17T00:32:34.146Z,18.76
2017-04-17T00:33:44.134Z,18.79
2017-04-17T00:34:54.423Z,18.76
2017-04-17T00:36:04.706Z,18.79
2017-04-17T00:37:15.021Z,18.78
2017-04-17T00:38:25.574Z,18.76
2017-04-17T00:39:35.539Z,18.76
2017-04-17T00:40:45.513Z,18.78
2017-04-17T00:41:54.853Z,18.78
2017-04-17T00:43:05.137Z,18.76
2017-04-17T00:44:15.673Z,18.71
2017-04-17T00:45:25.954Z,18.81
2017-04-17T00:46:36.248Z,18.79
2017-04-17T00:47:46.533Z,18.74
2017-04-17T00:48:56.501Z,18.81
2017-04-17T00:50:07.021Z,18.76
2017-04-17T00:51:16.988Z,18.73
2017-04-17T00:52:27.272Z,18.7
2017-04-17T00:53:37.135Z,18.78
2017-04-17T00:54:47.414Z,18.71
2017-04-17T00:55:57.941Z,18.74
2017-04-17T00:57:07.911Z,18.76
2017-04-17T00:58:18.106Z,18.78
2017-04-17T00:59:28.132Z,18.73
2017-04-17T01:00:38.503Z,18.81
2017-04-17T01:01:49.033Z,18.7
2017-04-17T01:02:59.328Z,18.7
2017-04-17T01:04:09.611Z,18.73
2017-04-17T01:05:19.901Z,18.81
2017-04-17T01:06:29.251Z,18.7
2017-04-17T01:07:39.842Z,18.73
2017-04-17T01:08:50.125Z,18.74
2017-04-17T01:09:59.791Z,18.76
2017-04-17T01:11:09.761Z,18.71
2017-04-17T01:12:20.046Z,18.76
2017-04-17T01:13:30.631Z,18.76
2017-04-17T01:14:40.920Z,18.76
2017-04-17T01:15:51.216Z,18.83
2017-04-17T01:17:01.504Z,18.76
2017-04-17T01:18:11.788Z,18.73
2017-04-17T01:19:21.699Z,18.71
2017-04-17T01:20:31.999Z,18.71
2017-04-17T01:21:41.970Z,18.79
2017-04-17T01:22:51.619Z,18.76
2017-04-17T01:24:01.919Z,18.78
2017-04-17T01:25:12.516Z,18.76
2017-04-17T01:26:22.786Z,18.73
2017-04-17T01:27:32.439Z,18.7
2017-04-17T01:28:42.730Z,18.76
2017-04-17T01:29:53.005Z,18.73
2017-04-17T01:31:03.324Z,18.79
2017-04-17T01:32:13.603Z,18.78
2017-04-17T01:33:23.890Z,18.76
2017-04-17T01:34:34.183Z,18.71
2017-04-17T01:35:44.470Z,18.78
2017-04-17T01:36:54.699Z,18.74
2017-04-17T01:38:04.981Z,18.68
2017-04-17T01:39:15.279Z,18.76
2017-04-17T01:40:25.559Z,18.76
2017-04-17T01:41:35.524Z,18.7
2017-04-17T01:42:45.798Z,18.76
2017-04-17T01:43:56.097Z,18.74
2017-04-17T01:45:06.385Z,18.73
2017-04-17T01:46:16.676Z,18.74
2017-04-17T01:47:26.959Z,18.67
2017-04-17T01:48:37.181Z,18.71
2017-04-17T01:49:47.145Z,18.74
2017-04-17T01:50:57.419Z,18.73
2017-04-17T01:52:07.393Z,18.78
2017-04-17T01:53:17.673Z,18.73
2017-04-17T01:54:28.246Z,18.74
2017-04-17T01:55:38.514Z,18.74
2017-04-17T01:56:48.358Z,18.73
2017-04-17T01:57:58.606Z,18.74
2017-04-17T01:59:08.891Z,18.74
2017-04-17T02:00:19.426Z,18.73
2017-04-17T02:01:29.395Z,18.67
2017-04-17T02:02:39.373Z,18.7
2017-04-17T02:03:49.661Z,18.74
2017-04-17T02:04:59.677Z,18.63
2017-04-17T02:06:09.893Z,18.74
2017-04-17T02:07:19.865Z,18.78
2017-04-17T02:08:30.137Z,18.66
2017-04-17T02:09:40.422Z,18.68
2017-04-17T02:10:50.705Z,18.67
2017-04-17T02:12:00.927Z,18.61
2017-04-17T02:13:10.894Z,18.76
2017-04-17T02:14:20.880Z,18.64
2017-04-17T02:15:31.159Z,18.64
2017-04-17T02:16:41.456Z,18.7
2017-04-17T02:17:51.996Z,18.7
2017-04-17T02:19:02.338Z,18.73
2017-04-17T02:20:12.625Z,18.66
2017-04-17T02:21:22.932Z,18.7
2017-04-17T02:22:32.902Z,18.67
2017-04-17T02:23:43.173Z,18.68
2017-04-17T02:24:53.458Z,18.7
2017-04-17T02:26:03.661Z,18.7
2017-04-17T02:27:13.637Z,18.68
2017-04-17T02:28:23.970Z,18.58
2017-04-17T02:29:34.502Z,18.68
2017-04-17T02:30:44.800Z,18.58
2017-04-17T02:31:55.090Z,18.58
2017-04-17T02:33:05.377Z,18.64
2017-04-17T02:34:15.658Z,18.6
2017-04-17T02:35:25.563Z,18.66
2017-04-17T02:36:35.533Z,18.58
2017-04-17T02:37:45.821Z,18.6
2017-04-17T02:38:56.108Z,18.6
2017-04-17T02:40:06.076Z,18.7
2017-04-17T02:41:16.298Z,18.71
2017-04-17T02:42:26.575Z,18.58
2017-04-17T02:43:36.544Z,18.64
2017-04-17T02:44:46.829Z,18.64
2017-04-17T02:45:56.799Z,18.66
2017-04-17T02:47:07.324Z,18.66
2017-04-17T02:48:17.611Z,18.6
2017-04-17T02:49:27.896Z,18.63
2017-04-17T02:50:38.181Z,18.68
2017-04-17T02:51:48.153Z,18.64
2017-04-17T02:52:58.670Z,18.63
2017-04-17T02:54:08.642Z,18.57
2017-04-17T02:55:18.627Z,18.64
2017-04-17T02:56:28.922Z,18.63
2017-04-17T02:57:38.883Z,18.67
2017-04-17T02:58:49.113Z,18.71
2017-04-17T02:59:59.422Z,18.67
2017-04-17T03:01:09.387Z,18.68
2017-04-17T03:02:19.348Z,18.66
2017-04-17T03:03:28.715Z,18.68
2017-04-17T03:04:39.299Z,18.61
2017-04-17T03:05:49.595Z,18.68
2017-04-17T03:06:59.907Z,18.66
2017-04-17T03:08:10.184Z,18.7
2017-04-17T03:09:20.509Z,18.73
2017-04-17T03:10:30.735Z,18.7
2017-04-17T03:11:41.008Z,18.71
2017-04-17T03:12:50.985Z,18.7
2017-04-17T03:14:00.658Z,18.74
2017-04-17T03:15:10.934Z,18.74
2017-04-17T03:16:21.207Z,18.76
2017-04-17T03:17:31.485Z,18.7
2017-04-17T03:18:41.467Z,18.76
2017-04-17T03:19:51.765Z,18.7
2017-04-17T03:21:02.051Z,18.76
2017-04-17T03:22:12.572Z,18.73
2017-04-17T03:23:22.852Z,18.71
2017-04-17T03:24:33.138Z,18.76
2017-04-17T03:25:43.419Z,18.76
2017-04-17T03:26:53.382Z,18.76
2017-04-17T03:28:03.727Z,18.82
2017-04-17T03:29:14.001Z,18.66
2017-04-17T03:30:23.963Z,18.7
2017-04-17T03:31:34.241Z,18.66
2017-04-17T03:32:44.528Z,18.7
2017-04-17T03:33:55.055Z,18.73
2017-04-17T03:35:05.338Z,18.63
2017-04-17T03:36:15.609Z,18.68
2017-04-17T03:37:25.885Z,18.68
2017-04-17T03:38:35.903Z,18.71
2017-04-17T03:39:46.479Z,18.58
2017-04-17T03:40:56.446Z,18.71
2017-04-17T03:42:06.430Z,18.66
2017-04-17T03:43:16.711Z,18.68
2017-04-17T03:44:27.355Z,18.71
2017-04-17T03:45:37.895Z,18.71
2017-04-17T03:46:48.185Z,18.7
2017-04-17T03:47:58.467Z,18.64
2017-04-17T03:49:08.128Z,18.68
2017-04-17T03:50:18.404Z,18.68
2017-04-17T03:51:28.939Z,18.7
2017-04-17T03:52:39.230Z,18.76
2017-04-17T03:53:48.894Z,18.74
2017-04-17T03:54:59.182Z,18.74
2017-04-17T03:56:09.258Z,18.73
2017-04-17T03:57:19.478Z,18.76
2017-04-17T03:58:29.503Z,18.68
2017-04-17T03:59:39.795Z,18.76
2017-04-17T04:00:50.073Z,18.67
2017-04-17T04:02:00.352Z,18.79
2017-04-17T04:03:10.878Z,18.7
2017-04-17T04:04:20.859Z,18.73
2017-04-17T04:05:31.130Z,18.78
2017-04-17T04:06:41.100Z,18.7
2017-04-17T04:07:51.073Z,18.73
2017-04-17T04:09:01.338Z,18.76
2017-04-17T04:10:11.309Z,18.74
2017-04-17T04:11:21.277Z,18.74
2017-04-17T04:12:31.244Z,18.74
2017-04-17T04:13:41.532Z,18.73
2017-04-17T04:14:52.078Z,18.79
2017-04-17T04:16:02.042Z,18.7
2017-04-17T04:17:12.024Z,18.71
2017-04-17T04:18:22.304Z,18.81
2017-04-17T04:19:32.607Z,18.7
2017-04-17T04:20:43.144Z,18.68
2017-04-17T04:21:53.412Z,18.74
2017-04-17T04:23:03.078Z,18.7
2017-04-17T04:24:13.374Z,18.78
2017-04-17T04:25:23.346Z,18.78
2017-04-17T04:26:33.560Z,18.73
2017-04-17T04:27:43.539Z,18.73
2017-04-17T04:28:53.829Z,18.76
2017-04-17T04:30:03.487Z,18.73
2017-04-17T04:31:13.981Z,18.73
2017-04-17T04:32:23.881Z,18.76
2017-04-17T04:33:33.957Z,18.74
2017-04-17T04:34:43.931Z,18.74
2017-04-17T04:35:54.232Z,18.76
2017-04-17T04:37:04.525Z,18.78
2017-04-17T04:38:14.790Z,18.79
2017-04-17T04:39:24.760Z,18.74
2017-04-17T04:40:35.082Z,18.86
2017-04-17T04:41:45.356Z,18.79
2017-04-17T04:42:55.333Z,18.73
2017-04-17T04:44:05.859Z,18.82
2017-04-17T04:45:16.143Z,18.76
2017-04-17T04:46:25.811Z,18.76
2017-04-17T04:47:36.106Z,18.76
2017-04-17T04:48:46.088Z,18.89
2017-04-17T04:49:56.629Z,18.78
2017-04-17T04:51:06.604Z,18.79
2017-04-17T04:52:16.888Z,18.86
2017-04-17T04:53:27.167Z,18.83
2017-04-17T04:54:37.457Z,18.78
2017-04-17T04:55:48.041Z,18.79
2017-04-17T04:56:58.331Z,18.76
2017-04-17T04:58:08.306Z,18.73
2017-04-17T04:59:18.595Z,18.76
2017-04-17T05:00:28.875Z,18.79
2017-04-17T05:01:39.090Z,18.73
2017-04-17T05:02:48.758Z,18.79
2017-04-17T05:03:58.554Z,18.78
2017-04-17T05:05:08.854Z,18.7
2017-04-17T05:06:19.135Z,18.78
2017-04-17T05:07:29.397Z,18.78
2017-04-17T05:08:39.682Z,18.78
2017-04-17T05:09:49.650Z,18.76
2017-04-17T05:10:59.933Z,18.74
2017-04-17T05:12:10.211Z,18.71
2017-04-17T05:13:20.751Z,18.82
2017-04-17T05:14:31.035Z,18.79
2017-04-17T05:15:41.317Z,18.71
2017-04-17T05:16:51.594Z,18.74
2017-04-17T05:18:01.873Z,18.79
2017-04-17T05:19:12.457Z,18.81
2017-04-17T05:20:22.751Z,18.74
2017-04-17T05:21:33.037Z,18.74
2017-04-17T05:22:43.003Z,18.73
2017-04-17T05:23:53.279Z,18.74
2017-04-17T05:25:03.502Z,18.76
2017-04-17T05:26:13.153Z,18.88
2017-04-17T05:27:23.117Z,18.86
2017-04-17T05:28:33.403Z,18.85
2017-04-17T05:29:43.675Z,18.85
2017-04-17T05:30:54.209Z,18.88
2017-04-17T05:32:04.480Z,18.85
2017-04-17T05:33:13.830Z,18.89
2017-04-17T05:34:24.128Z,18.92
2017-04-17T05:35:34.582Z,18.83
2017-04-17T05:36:45.121Z,18.83
2017-04-17T05:37:55.417Z,18.85
2017-04-17T05:39:05.652Z,18.88
2017-04-17T05:40:15.946Z,18.81
2017-04-17T05:41:25.907Z,18.89
2017-04-17T05:42:36.181Z,18.85
2017-04-17T05:43:46.467Z,18.79
2017-04-17T05:44:56.753Z,18.83
2017-04-17T05:46:07.038Z,18.91
2017-04-17T05:47:17.009Z,18.89
2017-04-17T05:48:27.535Z,18.89
2017-04-17T05:49:37.828Z,18.86
2017-04-17T05:50:48.109Z,18.91
2017-04-17T05:51:58.386Z,18.89
2017-04-17T05:53:08.373Z,18.82
2017-04-17T05:54:18.642Z,18.74
2017-04-17T05:55:28.617Z,18.89
2017-04-17T05:56:38.593Z,18.88
2017-04-17T05:57:48.565Z,18.89
2017-04-17T05:58:58.841Z,18.79
2017-04-17T06:00:09.071Z,18.88
2017-04-17T06:01:19.345Z,18.88
2017-04-17T06:02:29.629Z,18.83
2017-04-17T06:03:39.604Z,18.83
2017-04-17T06:04:49.576Z,18.85
2017-04-17T06:06:00.106Z,18.91
2017-04-17T06:07:10.382Z,18.88
2017-04-17T06:08:20.050Z,18.85
2017-04-17T06:09:30.338Z,18.85
2017-04-17T06:10:40.545Z,18.86
2017-04-17T06:11:51.087Z,18.88
2017-04-17T06:13:01.086Z,18.92
2017-04-17T06:14:11.162Z,18.86
2017-04-17T06:15:21.443Z,18.85
2017-04-17T06:16:31.715Z,18.88
2017-04-17T06:17:42.250Z,18.94
2017-04-17T06:18:52.529Z,18.85
2017-04-17T06:20:02.812Z,18.89
2017-04-17T06:21:13.107Z,18.92
2017-04-17T06:22:23.082Z,18.83
2017-04-17T06:23:33.623Z,18.86
2017-04-17T06:24:43.916Z,18.83
2017-04-17T06:25:53.891Z,18.86
2017-04-17T06:27:04.173Z,18.82
2017-04-17T06:28:13.833Z,18.94
2017-04-17T06:29:24.369Z,18.92
2017-04-17T06:30:34.654Z,18.96
2017-04-17T06:31:44.634Z,18.83
2017-04-17T06:32:54.917Z,18.92
2017-04-17T06:34:04.890Z,18.94
2017-04-17T06:35:15.489Z,18.86
2017-04-17T06:36:25.461Z,18.92
2017-04-17T06:37:35.735Z,18.91
2017-04-17T06:38:46.021Z,18.96
2017-04-17T06:39:56.515Z,18.94
2017-04-17T06:41:07.045Z,18.88
2017-04-17T06:42:17.384Z,18.96
2017-04-17T06:43:27.669Z,19.01
2017-04-17T06:44:37.961Z,19.01
2017-04-17T06:45:48.127Z,18.96
2017-04-17T06:46:58.349Z,19.01
2017-04-17T06:48:08.666Z,19.05
2017-04-17T06:49:18.639Z,19.07
2017-04-17T06:50:28.929Z,19.01
2017-04-17T06:51:39.208Z,19.04
2017-04-17T06:52:49.741Z,19.07
2017-04-17T06:54:00.028Z,19.16
2017-04-17T06:55:10.317Z,19.05
2017-04-17T06:56:20.297Z,19.08
2017-04-17T06:57:29.963Z,19.08
2017-04-17T06:58:39.871Z,19.15
2017-04-17T06:59:49.839Z,19.05
2017-04-17T07:01:00.124Z,19.16
2017-04-17T07:02:10.097Z,19.17
2017-04-17T07:03:20.385Z,19.12
2017-04-17T07:04:30.610Z,19.15
2017-04-17T07:05:40.899Z,19.2
2017-04-17T07:06:51.207Z,19.17
2017-04-17T07:08:01.170Z,19.12
2017-04-17T07:09:11.145Z,19.17
2017-04-17T07:10:21.682Z,19.15
2017-04-17T07:11:31.969Z,19.16
2017-04-17T07:12:42.261Z,19.15
2017-04-17T07:13:52.240Z,19.24
2017-04-17T07:15:02.521Z,19.19
2017-04-17T07:16:12.751Z,19.17
2017-04-17T07:17:22.744Z,19.22
2017-04-17T07:18:33.180Z,19.26
2017-04-17T07:19:43.244Z,19.23
2017-04-17T07:20:53.532Z,19.2
2017-04-17T07:22:03.761Z,19.23
2017-04-17T07:23:14.042Z,19.26
2017-04-17T07:24:24.027Z,19.32
2017-04-17T07:25:34.310Z,19.27
2017-04-17T07:26:44.603Z,19.35
2017-04-17T07:27:54.887Z,19.39
2017-04-17T07:29:05.183Z,19.32
2017-04-17T07:30:15.467Z,19.35
2017-04-17T07:31:25.453Z,19.37
2017-04-17T07:32:35.741Z,19.37
2017-04-17T07:33:46.305Z,19.48
2017-04-17T07:34:56.596Z,19.42
2017-04-17T07:36:06.880Z,19.42
2017-04-17T07:37:17.157Z,19.41
2017-04-17T07:38:26.835Z,19.48
2017-04-17T07:39:36.740Z,19.44
2017-04-17T07:40:47.037Z,19.48
2017-04-17T07:41:57.006Z,19.47
2017-04-17T07:43:07.288Z,19.41
2017-04-17T07:44:17.572Z,19.45
2017-04-17T07:45:27.827Z,19.44
2017-04-17T07:46:37.513Z,19.39
2017-04-17T07:47:47.793Z,19.35
2017-04-17T07:48:57.779Z,19.52
2017-04-17T07:50:07.754Z,19.52
2017-04-17T07:51:18.344Z,19.44
2017-04-17T07:52:28.641Z,19.48
2017-04-17T07:53:38.947Z,19.37
2017-04-17T07:54:49.233Z,19.47
2017-04-17T07:55:59.521Z,19.47
2017-04-17T07:57:10.059Z,19.38
2017-04-17T07:58:20.075Z,19.35
2017-04-17T07:59:30.370Z,19.38
2017-04-17T08:00:40.667Z,19.37
2017-04-17T08:01:50.944Z,19.41
2017-04-17T08:03:01.225Z,19.42
2017-04-17T08:04:11.203Z,19.37
2017-04-17T08:05:21.485Z,19.32
2017-04-17T08:06:31.777Z,19.37
2017-04-17T08:07:42.067Z,19.39
2017-04-17T08:08:52.349Z,19.35
2017-04-17T08:10:02.644Z,19.37
2017-04-17T08:11:12.930Z,19.49
2017-04-17T08:12:22.900Z,19.48
2017-04-17T08:13:33.191Z,19.44
2017-04-17T08:14:43.731Z,19.49
2017-04-17T08:15:53.713Z,19.52
2017-04-17T08:17:03.989Z,19.39
2017-04-17T08:18:13.961Z,19.47
2017-04-17T08:19:23.945Z,19.42
2017-04-17T08:20:34.183Z,19.52
2017-04-17T08:21:44.464Z,19.39
2017-04-17T08:22:54.669Z,19.42
2017-04-17T08:24:04.952Z,19.48
2017-04-17T08:25:15.238Z,19.41
2017-04-17T08:26:25.830Z,19.49
2017-04-17T08:27:36.115Z,19.41
2017-04-17T08:28:45.793Z,19.39
2017-04-17T08:29:56.087Z,19.48
2017-04-17T08:31:06.072Z,19.49
2017-04-17T08:32:16.601Z,19.42
2017-04-17T08:33:26.577Z,19.49
2017-04-17T08:34:36.882Z,19.47
2017-04-17T08:35:47.170Z,19.47
2017-04-17T08:36:57.468Z,19.49
2017-04-17T08:38:08.063Z,19.42
2017-04-17T08:39:18.378Z,19.48
2017-04-17T08:40:28.360Z,19.38
2017-04-17T08:41:38.651Z,19.39
2017-04-17T08:42:48.634Z,19.34
2017-04-17T08:43:59.223Z,19.34
2017-04-17T08:45:09.192Z,19.35
2017-04-17T08:46:19.500Z,19.42
2017-04-17T08:47:29.491Z,19.35
2017-04-17T08:48:39.283Z,19.39
2017-04-17T08:49:49.832Z,19.38
2017-04-17T08:51:00.126Z,19.42
2017-04-17T08:52:10.093Z,19.35
2017-04-17T08:53:20.083Z,19.45
2017-04-17T08:54:30.066Z,19.34
2017-04-17T08:55:40.292Z,19.41
2017-04-17T08:56:50.653Z,19.48
2017-04-17T08:58:01.356Z,19.41
2017-04-17T08:59:11.675Z,19.47
2017-04-17T09:00:21.713Z,19.47
2017-04-17T09:01:32.251Z,19.44
2017-04-17T09:02:42.538Z,19.48
2017-04-17T09:03:52.521Z,19.39
2017-04-17T09:05:02.829Z,19.45
2017-04-17T09:06:13.119Z,19.44
2017-04-17T09:07:23.708Z,19.42
2017-04-17T09:08:33.676Z,19.49
2017-04-17T09:09:43.986Z,19.48
2017-04-17T09:10:54.276Z,19.44
2017-04-17T09:12:03.634Z,19.44
2017-04-17T09:13:13.598Z,19.45
2017-04-17T09:14:23.892Z,19.45
2017-04-17T09:15:34.186Z,19.48
2017-04-17T09:16:44.485Z,19.45
2017-04-17T09:17:54.782Z,19.38
2017-04-17T09:19:05.037Z,19.45
2017-04-17T09:20:15.343Z,19.38
2017-04-17T09:21:25.629Z,19.32
2017-04-17T09:22:35.614Z,19.37
2017-04-17T09:23:45.914Z,19.34
2017-04-17T09:24:56.170Z,19.39
2017-04-17T09:26:06.463Z,19.37
2017-04-17T09:27:16.451Z,19.37
2017-04-17T09:28:26.434Z,19.34
2017-04-17T09:29:36.730Z,19.38
2017-04-17T09:30:47.342Z,19.37
2017-04-17T09:31:57.315Z,19.37
2017-04-17T09:33:07.642Z,19.37
2017-04-17T09:34:17.663Z,19.37
2017-04-17T09:35:27.742Z,19.41
2017-04-17T09:36:38.645Z,19.38
2017-04-17T09:37:48.765Z,19.42
2017-04-17T09:38:59.059Z,19.38
2017-04-17T09:40:09.045Z,19.42
2017-04-17T09:41:18.707Z,19.39
2017-04-17T09:42:28.942Z,19.49
2017-04-17T09:43:38.918Z,19.52
2017-04-17T09:44:49.222Z,19.44
2017-04-17T09:45:59.504Z,19.45
2017-04-17T09:47:09.788Z,19.45
2017-04-17T09:48:20.327Z,19.44
2017-04-17T09:49:30.329Z,19.42
2017-04-17T09:50:40.624Z,19.49
2017-04-17T09:51:50.330Z,19.41
2017-04-17T09:53:00.625Z,19.41
2017-04-17T09:54:11.177Z,19.52
2017-04-17T09:55:21.457Z,19.49
2017-04-17T09:56:31.451Z,19.42
2017-04-17T09:57:41.431Z,19.45
2017-04-17T09:58:51.725Z,19.49
2017-04-17T10:00:01.966Z,19.44
2017-04-17T10:01:11.961Z,19.44
2017-04-17T10:02:22.262Z,19.48
2017-04-17T10:03:31.942Z,19.44
2017-04-17T10:04:42.245Z,19.45
2017-04-17T10:05:52.183Z,19.39
2017-04-17T10:07:02.491Z,19.37
2017-04-17T10:08:12.799Z,19.37
2017-04-17T10:09:23.111Z,19.37
2017-04-17T10:10:33.405Z,19.41
2017-04-17T10:11:43.711Z,19.37
2017-04-17T10:12:53.689Z,19.37
2017-04-17T10:14:04.000Z,19.38
2017-04-17T10:15:14.348Z,19.37
2017-04-17T10:16:24.648Z,19.41
2017-04-17T10:17:34.577Z,19.35
2017-04-17T10:18:44.268Z,19.35
2017-04-17T10:19:54.581Z,19.38
2017-04-17T10:21:04.563Z,19.41
2017-04-17T10:22:14.897Z,19.34
2017-04-17T10:23:25.451Z,19.32
2017-04-17T10:24:35.454Z,19.35
2017-04-17T10:25:45.436Z,19.35
2017-04-17T10:26:55.438Z,19.38
2017-04-17T10:28:05.443Z,19.37
2017-04-17T10:29:16.035Z,19.34
2017-04-17T10:30:26.345Z,19.35
2017-04-17T10:31:36.642Z,19.38
2017-04-17T10:32:46.958Z,19.48
2017-04-17T10:33:56.949Z,19.39
2017-04-17T10:35:07.515Z,19.41
2017-04-17T10:36:17.810Z,19.44
2017-04-17T10:37:27.818Z,19.49
2017-04-17T10:38:38.120Z,19.38
2017-04-17T10:39:48.167Z,19.39
2017-04-17T10:40:58.717Z,19.48
2017-04-17T10:42:08.721Z,19.41
2017-04-17T10:43:19.038Z,19.48
2017-04-17T10:44:28.770Z,19.39
2017-04-17T10:45:38.765Z,19.49
2017-04-17T10:46:49.324Z,19.45
2017-04-17T10:47:59.621Z,19.47
2017-04-17T10:49:09.763Z,19.48
2017-04-17T10:50:19.807Z,19.45
2017-04-17T10:51:30.094Z,19.37
2017-04-17T10:52:40.408Z,19.38
2017-04-17T10:53:50.764Z,19.48
2017-04-17T10:55:00.769Z,19.42
2017-04-17T10:56:10.787Z,19.35
2017-04-17T10:57:20.821Z,19.41
2017-04-17T10:58:31.382Z,19.39
2017-04-17T10:59:41.691Z,19.45
2017-04-17T11:00:51.695Z,19.52
2017-04-17T11:02:02.009Z,19.45
2017-04-17T11:03:12.020Z,19.47
2017-04-17T11:04:22.633Z,19.39
2017-04-17T11:05:32.327Z,19.42
2017-04-17T11:06:42.650Z,19.39
2017-04-17T11:07:52.991Z,19.39
2017-04-17T11:09:03.002Z,19.41
2017-04-17T11:10:13.289Z,19.44
2017-04-17T11:11:23.306Z,19.48
2017-04-17T11:12:33.639Z,19.47
2017-04-17T11:13:43.946Z,19.48
2017-04-17T11:14:54.288Z,19.48
2017-04-17T11:16:04.905Z,19.48
2017-04-17T11:17:15.234Z,19.44
2017-04-17T11:18:25.250Z,19.42
2017-04-17T11:19:35.588Z,19.39
2017-04-17T11:20:45.607Z,19.42
2017-04-17T11:21:55.864Z,19.45
2017-04-17T11:23:05.943Z,19.44
2017-04-17T11:24:16.415Z,19.39
2017-04-17T11:25:26.853Z,19.44
2017-04-17T11:26:37.278Z,19.35
2017-04-17T11:27:48.258Z,19.42
2017-04-17T11:28:58.339Z,19.38
2017-04-17T11:30:08.037Z,19.34
2017-04-17T11:31:17.724Z,19.41
2017-04-17T11:32:28.069Z,19.37
2017-04-17T11:33:38.669Z,19.41
2017-04-17T11:34:48.669Z,19.35
2017-04-17T11:35:59.026Z,19.34
2017-04-17T11:37:09.344Z,19.35
2017-04-17T11:38:19.367Z,19.37
2017-04-17T11:39:30.041Z,19.32
2017-04-17T11:40:40.064Z,19.35
2017-04-17T11:41:50.088Z,19.37
2017-04-17T11:43:00.107Z,19.27
2017-04-17T11:44:10.108Z,19.34
2017-04-17T11:45:20.375Z,19.29
2017-04-17T11:46:30.710Z,19.3
2017-04-17T11:47:40.424Z,19.37
2017-04-17T11:48:50.742Z,19.32
2017-04-17T11:50:00.456Z,19.32
2017-04-17T11:51:11.041Z,19.3
2017-04-17T11:52:21.064Z,19.34
2017-04-17T11:53:31.495Z,19.34
2017-04-17T11:54:41.811Z,19.38
2017-04-17T11:55:52.157Z,19.39
2017-04-17T11:57:02.719Z,19.41
2017-04-17T11:58:12.416Z,19.39
2017-04-17T11:59:22.428Z,19.35
2017-04-17T12:00:32.099Z,19.3
2017-04-17T12:01:42.103Z,19.29
2017-04-17T12:02:52.682Z,19.37
2017-04-17T12:04:03.041Z,19.34
2017-04-17T12:05:13.138Z,19.39
2017-04-17T12:06:23.764Z,19.42
2017-04-17T12:07:34.327Z,19.38
2017-04-17T12:08:45.040Z,19.38
2017-04-17T12:09:55.479Z,19.38
2017-04-17T12:11:05.854Z,19.41
2017-04-17T12:12:16.168Z,19.39
2017-04-17T12:13:26.491Z,19.35
2017-04-17T12:14:37.139Z,19.39
2017-04-17T12:15:47.136Z,19.37
2017-04-17T12:16:57.170Z,19.41
2017-04-17T12:18:07.158Z,19.32
2017-04-17T12:19:17.190Z,19.39
2017-04-17T12:20:27.751Z,19.41
2017-04-17T12:21:38.080Z,19.41
2017-04-17T12:22:48.105Z,19.35
2017-04-17T12:23:58.448Z,19.35
2017-04-17T12:25:08.783Z,19.32
2017-04-17T12:26:19.418Z,19.37
2017-04-17T12:27:29.780Z,19.34
2017-04-17T12:28:39.475Z,19.37
2017-04-17T12:29:49.832Z,19.32
2017-04-17T12:31:00.150Z,19.37
2017-04-17T12:32:10.812Z,19.34
2017-04-17T12:33:21.137Z,19.34
2017-04-17T12:34:31.176Z,19.35
2017-04-17T12:35:41.498Z,19.37
2017-04-17T12:36:51.208Z,19.32
2017-04-17T12:38:01.464Z,19.3
2017-04-17T12:39:11.531Z,19.41
2017-04-17T12:40:21.223Z,19.35
2017-04-17T12:41:31.209Z,19.29
2017-04-17T12:42:41.520Z,19.35
2017-04-17T12:43:51.835Z,19.38
2017-04-17T12:45:02.375Z,19.38
2017-04-17T12:46:12.542Z,19.32
2017-04-17T12:47:23.048Z,19.39
2017-04-17T12:48:33.357Z,19.39
2017-04-17T12:49:43.957Z,19.42
2017-04-17T12:50:53.973Z,19.41
2017-04-17T12:52:04.000Z,19.37
2017-04-17T12:53:14.013Z,19.44
2017-04-17T12:54:24.078Z,19.37
2017-04-17T12:55:34.654Z,19.39
2017-04-17T12:56:44.991Z,19.37
2017-04-17T12:57:55.344Z,19.39
2017-04-17T12:59:05.672Z,19.38
2017-04-17T13:00:15.997Z,19.3
2017-04-17T13:01:26.576Z,19.39
2017-04-17T13:02:36.916Z,19.37
2017-04-17T13:03:46.599Z,19.35
2017-04-17T13:04:56.922Z,19.37
2017-04-17T13:06:07.255Z,19.38
2017-04-17T13:07:17.885Z,19.39
2017-04-17T13:08:27.896Z,19.35
2017-04-17T13:09:37.899Z,19.34
2017-04-17T13:10:48.199Z,19.37
2017-04-17T13:11:58.219Z,19.41
2017-04-17T13:13:08.486Z,19.37
2017-04-17T13:14:18.475Z,19.38
2017-04-17T13:15:28.512Z,19.38
2017-04-17T13:16:38.551Z,19.34
2017-04-17T13:17:47.951Z,19.37
2017-04-17T13:18:58.235Z,19.38
2017-04-17T13:20:08.558Z,19.44
2017-04-17T13:21:18.562Z,19.41
2017-04-17T13:22:28.869Z,19.38
2017-04-17T13:23:38.879Z,19.41
2017-04-17T13:24:49.467Z,19.39
2017-04-17T13:25:59.471Z,19.41
2017-04-17T13:27:09.459Z,19.47
2017-04-17T13:28:18.851Z,19.41
2017-04-17T13:29:28.841Z,19.49
2017-04-17T13:30:39.475Z,19.48
2017-04-17T13:31:49.788Z,19.47
2017-04-17T13:32:59.815Z,19.49
2017-04-17T13:34:09.486Z,19.41
2017-04-17T13:35:19.823Z,19.52
2017-04-17T13:36:29.763Z,19.48
2017-04-17T13:37:40.067Z,19.49
2017-04-17T13:38:50.100Z,19.41
2017-04-17T13:40:00.434Z,19.37
2017-04-17T13:41:10.495Z,19.38
2017-04-17T13:42:21.104Z,19.41
2017-04-17T13:43:31.129Z,19.37
2017-04-17T13:44:41.505Z,19.42
2017-04-17T13:45:51.831Z,19.41
2017-04-17T13:47:01.826Z,19.42
2017-04-17T13:48:12.150Z,19.37
2017-04-17T13:49:22.483Z,19.37
2017-04-17T13:50:32.487Z,19.34
2017-04-17T13:51:42.825Z,19.35
2017-04-17T13:52:53.142Z,19.38
2017-04-17T13:54:03.408Z,19.35
2017-04-17T13:55:13.725Z,19.38
2017-04-17T13:56:24.072Z,19.3
2017-04-17T13:57:34.383Z,19.35
2017-04-17T13:58:44.734Z,19.38
2017-04-17T13:59:55.357Z,19.41
2017-04-17T14:01:05.917Z,19.37
2017-04-17T14:02:16.249Z,19.39
2017-04-17T14:03:26.658Z,19.32
2017-04-17T14:04:36.658Z,19.35
2017-04-17T14:05:46.614Z,19.39
2017-04-17T14:06:56.637Z,19.35
2017-04-17T14:08:06.961Z,19.37
2017-04-17T14:09:17.305Z,19.35
2017-04-17T14:10:27.375Z,19.34
2017-04-17T14:11:38.071Z,19.42
2017-04-17T14:12:48.050Z,19.44
2017-04-17T14:13:58.074Z,19.34
2017-04-17T14:15:08.089Z,19.37
2017-04-17T14:16:18.419Z,19.38
2017-04-17T14:17:28.724Z,19.34
2017-04-17T14:18:39.052Z,19.32
2017-04-17T14:19:49.394Z,19.34
2017-04-17T14:20:59.389Z,19.42
2017-04-17T14:22:09.155Z,19.41
2017-04-17T14:23:19.737Z,19.37
2017-04-17T14:24:29.758Z,19.32
2017-04-17T14:25:40.063Z,19.34
2017-04-17T14:26:50.401Z,19.37
2017-04-17T14:28:00.724Z,19.35
2017-04-17T14:29:11.301Z,19.37
2017-04-17T14:30:21.637Z,19.35
2017-04-17T14:31:31.956Z,19.37
2017-04-17T14:32:41.654Z,19.35
2017-04-17T14:33:51.987Z,19.39
2017-04-17T14:35:02.584Z,19.32
2017-04-17T14:36:12.893Z,19.3
2017-04-17T14:37:23.555Z,19.3
2017-04-17T14:38:34.130Z,19.35
2017-04-17T14:39:44.478Z,19.32
2017-04-17T14:40:54.786Z,19.41
2017-04-17T14:42:05.375Z,19.37
2017-04-17T14:43:15.736Z,19.32
2017-04-17T14:44:25.747Z,19.35
2017-04-17T14:45:36.096Z,19.35
2017-04-17T14:46:46.654Z,19.35
2017-04-17T14:47:56.986Z,19.32
2017-04-17T14:49:07.292Z,19.37
2017-04-17T14:50:17.624Z,19.35
2017-04-17T14:51:27.692Z,19.38
2017-04-17T14:52:37.631Z,19.37
2017-04-17T14:53:47.988Z,19.38
2017-04-17T14:54:58.334Z,19.39
2017-04-17T14:56:08.370Z,19.38
2017-04-17T14:57:18.699Z,19.35
2017-04-17T14:58:29.050Z,19.39
2017-04-17T14:59:39.396Z,19.34
2017-04-17T15:00:49.725Z,19.34
2017-04-17T15:02:00.043Z,19.34
2017-04-17T15:03:10.392Z,19.38
2017-04-17T15:04:20.348Z,19.32
2017-04-17T15:05:30.694Z,19.32
2017-04-17T15:06:41.031Z,19.32